createdAt,value
2023-04-03T00:06:16.538Z,94.2
2023-04-03T00:26:16.793Z,93.7
2023-04-03T00:46:16.499Z,94.1
2023-04-03T01:06:16.455Z,94.0
2023-04-03T01:26:16.526Z,95.0
2023-04-03T01:46:16.570Z,95.4
2023-04-03T02:06:16.396Z,94.5
2023-04-03T02:26:16.561Z,94.4
2023-04-03T02:46:16.514Z,93.7
2023-04-03T03:06:16.455Z,94.4
2023-04-03T03:26:16.326Z,93.8
2023-04-03T03:46:16.374Z,93.7
2023-04-03T04:06:16.387Z,94.3
2023-04-03T04:26:16.293Z,94.0
2023-04-03T04:46:16.332Z,94.2
2023-04-03T05:06:16.414Z,94.0
2023-04-03T05:26:16.362Z,93.9
2023-04-03T05:46:16.316Z,94.2
2023-04-03T06:06:16.342Z,94.5
2023-04-03T06:26:16.414Z,94.7
2023-04-03T06:46:16.241Z,94.6
2023-04-03T07:06:16.269Z,93.7
2023-04-03T07:26:16.351Z,93.4
2023-04-03T07:46:16.340Z,93.1
2023-04-03T08:06:16.443Z,93.0
2023-04-03T08:26:16.291Z,93.6
2023-04-03T08:46:16.488Z,94.6
2023-04-03T09:06:16.427Z,93.3
2023-04-03T09:26:16.319Z,92.7
2023-04-03T09:46:16.258Z,91.7
2023-04-03T10:06:16.333Z,90.8
2023-04-03T10:26:16.278Z,89.2
2023-04-03T11:06:16.100Z,86.9
2023-04-03T11:26:16.080Z,85.4
2023-04-03T11:46:16.130Z,84.9
2023-04-03T12:06:16.273Z,82.7
2023-04-03T12:26:16.186Z,83.0
2023-04-03T12:46:16.187Z,83.5
2023-04-03T13:06:16.165Z,82.9
2023-04-03T13:26:16.178Z,85.2
2023-04-03T13:46:16.108Z,83.9
2023-04-03T14:06:16.003Z,78.6
2023-04-03T14:26:16.112Z,79.1
2023-04-03T14:46:16.054Z,77.8
2023-04-03T15:06:16.122Z,77.8
2023-04-03T15:26:16.075Z,76.2
2023-04-03T15:46:16.090Z,73.5
2023-04-03T16:06:16.042Z,75.6
2023-04-03T16:26:16.030Z,74.7
2023-04-03T16:46:16.048Z,78.5
2023-04-03T17:06:16.017Z,73.6
2023-04-03T17:26:16.016Z,77.0
2023-04-03T17:46:15.998Z,77.3
2023-04-03T18:06:15.922Z,78.4
2023-04-03T18:26:15.945Z,79.9
2023-04-03T18:46:15.990Z,77.1
2023-04-03T19:06:15.925Z,76.5
2023-04-03T19:26:15.775Z,78.4
2023-04-03T19:46:15.934Z,78.5
2023-04-03T20:06:15.933Z,78.4
2023-04-03T20:26:15.770Z,79.8
2023-04-03T20:46:15.787Z,81.1
2023-04-03T21:06:15.884Z,82.0
2023-04-03T21:26:15.733Z,82.9
2023-04-03T21:46:15.850Z,81.5
2023-04-03T22:06:15.711Z,83.7
2023-04-03T22:26:15.928Z,83.4
2023-04-03T22:46:15.872Z,84.1
2023-04-03T23:06:15.904Z,84.2
2023-04-03T23:26:15.698Z,85.4
2023-04-03T23:46:15.687Z,85.3
